Aviation Digital Data Service (ADDS)

Output produced by METARs form (1827 UTC 16 August 2018)
found at http://www.aviationweather.gov/adds/metars/
 
TAF MGGT 161100Z 1612/1712 36010KT 9999 BKN014 TX26/1620Z TN17/1612Z 
     BECMG 1615/1617 SCT018 
     TEMPO 1620/1624 SCT020TCU 
     TEMPO 1700/1702 36012KT SCT016 
     TEMPO 1706/1712 8000 RADZ BKN016
       
TAF MGMM 161100Z 1612/1712 00000KT CAVOK TX36/1620Z TN21/1612Z 
     BECMG 1615/1617 09010KT FEW018 
     BECMG 1620/1622 SCT020 
     BECMG 1700/1702 00000KT CAVOK
       
TAF MGPB 161100Z 1612/1712 00000KT 9999 FEW016 TX33/1620Z TN21/1612Z 
     BECMG 1615/1617 06008KT FEW018 
     TEMPO 1620/1704 8000 TSRA SCT018 FEW025CB 
     BECMG 170/1702 00000KT SCT016 SCT080 
     TEMPO 1705/1710 RADZ BKN016
       
TAF MGSJ 161100Z 1612/1712 00000KT 9999 FEW018 TX34/1620Z TN23/1612Z 
     BECMG 1615/1617 18008KT SCT018 
     TEMPO 1620/1624 8000 VCTSRA FEW025CB 
     BECMG 1700/1702 00000KT SCT016
       
TAF MGGT 161100Z 1612/1712 36010KT 9999 BKN014 TX26/1620Z TN17/1612Z 
     BECMG 1615/1617 SCT018 
     TEMPO 1620/1624 SCT020TCU 
     TEMPO 1700/1702 36012KT SCT016 
     TEMPO 1706/1712 8000 RADZ BKN016
       
TAF MGPB 161100Z 1612/1712 00000KT 9999 FEW016 TX33/1620Z TN21/1612Z 
     BECMG 1615/1617 06008KT FEW018 
     TEMPO 1620/1704 8000 TSRA SCT018 FEW025CB 
     BECMG 170/1702 00000KT SCT016 SCT080 
     TEMPO 1705/1710 RADZ BKN016
       
TAF MGSJ 161100Z 1612/1712 00000KT 9999 FEW018 TX34/1620Z TN23/1612Z 
     BECMG 1615/1617 18008KT SCT018 
     TEMPO 1620/1624 8000 VCTSRA FEW025CB 
     BECMG 1700/1702 00000KT SCT016